createdAt,value
2018-08-11T00:00:09.921Z,0.00
2018-08-11T00:01:09.893Z,0.00
2018-08-11T00:02:09.864Z,0.00
2018-08-11T00:03:09.845Z,0.00
2018-08-11T00:04:09.820Z,0.00
2018-08-11T00:05:09.784Z,0.00
2018-08-11T00:06:09.769Z,0.00
2018-08-11T00:07:09.744Z,0.00
2018-08-11T00:08:09.713Z,0.00
2018-08-11T00:09:09.690Z,0.00
2018-08-11T00:10:09.663Z,0.00
2018-08-11T00:11:09.639Z,0.00
2018-08-11T00:12:09.612Z,0.00
2018-08-11T00:13:09.585Z,0.00
2018-08-11T00:14:09.568Z,0.00
2018-08-11T00:15:09.539Z,0.00
2018-08-11T00:16:09.512Z,0.00
2018-08-11T00:17:09.483Z,0.00
2018-08-11T00:18:09.462Z,0.00
2018-08-11T00:19:09.454Z,0.00
2018-08-11T00:20:09.407Z,0.00
2018-08-11T00:21:09.393Z,0.00
2018-08-11T00:22:09.361Z,0.00
2018-08-11T00:23:09.332Z,0.00
2018-08-11T00:24:09.309Z,0.00
2018-08-11T00:25:09.278Z,0.00
2018-08-11T00:26:09.262Z,0.00
2018-08-11T00:27:09.232Z,0.00
2018-08-11T00:28:09.210Z,0.00
2018-08-11T00:29:09.186Z,0.00
2018-08-11T00:30:09.152Z,0.00
2018-08-11T00:31:09.132Z,0.00
2018-08-11T00:32:09.103Z,0.00
2018-08-11T00:33:09.079Z,0.00
2018-08-11T00:34:09.052Z,0.00
2018-08-11T00:35:09.026Z,0.00
2018-08-11T00:36:09.009Z,0.00
2018-08-11T00:37:08.973Z,0.00
2018-08-11T00:38:08.950Z,0.00
2018-08-11T00:39:08.932Z,0.00
2018-08-11T00:40:08.905Z,0.00
2018-08-11T00:41:08.880Z,0.00
2018-08-11T00:42:08.849Z,0.00
2018-08-11T00:43:08.826Z,0.00
2018-08-11T00:44:08.798Z,0.00
2018-08-11T00:45:08.771Z,0.00
2018-08-11T00:46:08.756Z,0.00
2018-08-11T00:47:08.721Z,0.00
2018-08-11T00:48:08.702Z,0.00
2018-08-11T00:49:08.677Z,0.00
2018-08-11T00:50:08.643Z,0.00
2018-08-11T00:51:08.775Z,0.00
2018-08-11T00:52:08.600Z,0.00
2018-08-11T00:53:08.577Z,0.00
2018-08-11T00:54:08.543Z,0.00
2018-08-11T00:55:08.521Z,0.00
2018-08-11T00:56:08.492Z,0.00
2018-08-11T00:57:08.473Z,0.00
2018-08-11T00:58:08.450Z,0.00
2018-08-11T00:59:08.423Z,0.00
2018-08-11T01:00:08.392Z,0.00
2018-08-11T01:01:08.369Z,0.00
2018-08-11T01:02:08.343Z,0.00
2018-08-11T01:03:08.314Z,0.00
2018-08-11T01:04:08.295Z,0.00
2018-08-11T01:05:08.268Z,0.00
2018-08-11T01:06:08.238Z,0.00
2018-08-11T01:07:08.216Z,0.00
2018-08-11T01:08:08.195Z,0.00
2018-08-11T01:09:08.168Z,0.00
2018-08-11T01:10:08.137Z,0.00
2018-08-11T01:11:08.117Z,0.00
2018-08-11T01:12:08.088Z,0.00
2018-08-11T01:13:08.065Z,0.00
2018-08-11T01:14:08.037Z,0.00
2018-08-11T01:15:08.020Z,0.00
2018-08-11T01:16:07.988Z,0.00
2018-08-11T01:17:07.961Z,0.00
2018-08-11T01:18:07.937Z,0.00
2018-08-11T01:19:07.907Z,0.00
2018-08-11T01:20:07.883Z,0.00
2018-08-11T01:21:07.863Z,0.00
2018-08-11T01:22:07.824Z,0.00
2018-08-11T01:23:07.804Z,0.00
2018-08-11T01:24:07.787Z,0.00
2018-08-11T01:25:07.755Z,0.00
2018-08-11T01:26:07.725Z,0.00
2018-08-11T01:27:07.698Z,0.00
2018-08-11T01:28:07.677Z,0.00
2018-08-11T01:29:07.645Z,0.00
2018-08-11T01:30:07.629Z,0.00
2018-08-11T01:31:07.597Z,0.00
2018-08-11T01:32:07.576Z,0.00
2018-08-11T01:33:07.547Z,0.00
2018-08-11T01:34:07.524Z,0.00
2018-08-11T01:35:07.498Z,0.00
2018-08-11T01:36:07.471Z,0.00
2018-08-11T01:37:07.449Z,0.00
2018-08-11T01:38:07.421Z,0.00
2018-08-11T01:39:07.390Z,0.00
2018-08-11T01:40:07.364Z,0.00
2018-08-11T01:41:07.335Z,0.00
2018-08-11T01:42:07.311Z,0.00
2018-08-11T01:43:07.292Z,0.00
2018-08-11T01:44:07.265Z,0.00
2018-08-11T01:45:07.233Z,0.00
2018-08-11T01:46:07.210Z,0.00
2018-08-11T01:47:07.184Z,0.00
2018-08-11T01:48:07.155Z,0.00
2018-08-11T01:49:07.132Z,0.00
2018-08-11T01:50:07.105Z,0.00
2018-08-11T01:51:07.077Z,0.00
2018-08-11T01:52:07.054Z,0.00
2018-08-11T01:53:07.026Z,0.00
2018-08-11T01:54:07.001Z,0.00
2018-08-11T01:55:06.972Z,0.00
2018-08-11T01:56:06.951Z,0.00
2018-08-11T01:57:06.932Z,0.00
2018-08-11T01:58:06.894Z,0.00
2018-08-11T01:59:06.866Z,0.00
2018-08-11T02:00:06.847Z,0.00
2018-08-11T02:01:06.819Z,0.00
2018-08-11T02:02:06.791Z,0.00
2018-08-11T02:03:06.769Z,0.00
2018-08-11T02:04:06.744Z,0.00
2018-08-11T02:05:06.717Z,0.00
2018-08-11T02:06:06.688Z,0.00
2018-08-11T02:07:06.663Z,0.00
2018-08-11T02:08:06.635Z,0.00
2018-08-11T02:09:06.606Z,0.00
2018-08-11T02:10:06.590Z,0.00
2018-08-11T02:11:06.584Z,0.00
2018-08-11T02:12:06.532Z,0.00
2018-08-11T02:13:06.506Z,0.00
2018-08-11T02:14:06.477Z,0.00
2018-08-11T02:15:06.458Z,0.00
2018-08-11T02:16:06.423Z,0.00
2018-08-11T02:17:06.405Z,0.00
2018-08-11T02:18:06.371Z,0.00
2018-08-11T02:19:06.346Z,0.00
2018-08-11T02:20:06.326Z,0.00
2018-08-11T02:21:06.294Z,0.00
2018-08-11T02:22:06.272Z,0.00
2018-08-11T02:23:06.245Z,0.00
2018-08-11T02:24:06.218Z,0.00
2018-08-11T02:25:06.194Z,0.00
2018-08-11T02:26:06.164Z,0.00
2018-08-11T02:27:06.141Z,0.00
2018-08-11T02:28:06.118Z,0.00
2018-08-11T02:29:06.082Z,0.00
2018-08-11T02:30:06.061Z,0.00
2018-08-11T02:31:06.043Z,0.00
2018-08-11T02:32:06.011Z,0.00
2018-08-11T02:33:05.986Z,0.00
2018-08-11T02:34:05.951Z,0.00
2018-08-11T02:35:05.932Z,0.00
2018-08-11T02:36:05.911Z,0.00
2018-08-11T02:37:05.874Z,0.00
2018-08-11T02:38:05.860Z,0.00
2018-08-11T02:39:05.830Z,0.00
2018-08-11T02:40:05.795Z,0.00
2018-08-11T02:41:05.784Z,0.00
2018-08-11T02:42:05.742Z,0.00
2018-08-11T02:43:05.719Z,0.00
2018-08-11T02:44:05.696Z,0.00
2018-08-11T02:45:05.667Z,0.00
2018-08-11T02:46:05.644Z,0.00
2018-08-11T02:47:05.619Z,0.00
2018-08-11T02:48:05.596Z,0.00
2018-08-11T02:49:05.566Z,0.00
2018-08-11T02:50:05.538Z,0.00
2018-08-11T02:51:05.512Z,0.00
2018-08-11T02:52:05.488Z,0.00
2018-08-11T02:53:05.465Z,0.00
2018-08-11T02:54:05.429Z,0.00
2018-08-11T02:55:05.410Z,0.00
2018-08-11T02:56:05.379Z,0.00
2018-08-11T02:57:05.352Z,0.00
2018-08-11T02:58:05.332Z,0.00
2018-08-11T02:59:05.298Z,0.00
2018-08-11T03:00:05.282Z,0.00
2018-08-11T03:01:05.253Z,0.00
2018-08-11T03:02:05.227Z,0.00
2018-08-11T03:03:05.209Z,0.00
2018-08-11T03:04:05.175Z,0.00
2018-08-11T03:05:05.142Z,0.00
2018-08-11T03:06:05.120Z,0.00
2018-08-11T03:07:05.095Z,0.00
2018-08-11T03:08:05.067Z,0.00
2018-08-11T03:09:05.042Z,0.00
2018-08-11T03:10:05.014Z,0.00
2018-08-11T03:11:04.987Z,0.00
2018-08-11T03:12:04.964Z,0.00
2018-08-11T03:13:04.934Z,0.00
2018-08-11T03:14:05.004Z,0.00
2018-08-11T03:15:04.887Z,0.00
2018-08-11T03:16:04.853Z,0.00
2018-08-11T03:17:04.838Z,0.00
2018-08-11T03:18:04.808Z,0.00
2018-08-11T03:19:04.778Z,0.00
2018-08-11T03:20:04.751Z,0.00
2018-08-11T03:21:04.724Z,0.00
2018-08-11T03:22:04.707Z,0.00
2018-08-11T03:23:04.674Z,0.00
2018-08-11T03:24:04.653Z,0.00
2018-08-11T03:25:04.627Z,0.00
2018-08-11T03:26:04.593Z,0.00
2018-08-11T03:27:04.574Z,0.00
2018-08-11T03:28:04.543Z,0.00
2018-08-11T03:29:04.512Z,0.00
2018-08-11T03:30:04.497Z,0.00
2018-08-11T03:31:04.464Z,0.00
2018-08-11T03:32:04.447Z,0.00
2018-08-11T03:33:04.420Z,0.00
2018-08-11T03:34:04.385Z,0.00
2018-08-11T03:35:04.368Z,0.00
2018-08-11T03:36:04.338Z,0.00
2018-08-11T03:37:04.313Z,0.00
2018-08-11T03:38:04.285Z,0.00
2018-08-11T03:39:04.258Z,0.00
2018-08-11T03:40:04.229Z,0.00
2018-08-11T03:41:04.206Z,0.00
2018-08-11T03:42:04.177Z,0.00
2018-08-11T03:43:04.150Z,0.00
2018-08-11T03:44:04.126Z,4.00
2018-08-11T03:45:04.096Z,4.00
2018-08-11T03:46:04.097Z,0.00
2018-08-11T03:47:04.046Z,4.00
2018-08-11T03:48:04.022Z,4.00
2018-08-11T03:49:03.999Z,4.00
2018-08-11T03:50:03.964Z,4.00
2018-08-11T03:51:03.944Z,8.00
2018-08-11T03:52:03.922Z,8.00
2018-08-11T03:53:03.891Z,8.00
2018-08-11T03:54:03.867Z,12.00
2018-08-11T03:55:03.847Z,12.00
2018-08-11T03:56:03.810Z,12.00
2018-08-11T03:57:03.792Z,12.00
2018-08-11T03:58:03.756Z,16.00
2018-08-11T03:59:03.730Z,16.00
2018-08-11T04:00:03.712Z,20.00
2018-08-11T04:01:03.676Z,20.00
2018-08-11T04:02:03.661Z,28.00
2018-08-11T04:03:03.624Z,28.00
2018-08-11T04:04:03.606Z,32.00
2018-08-11T04:05:03.578Z,36.00
2018-08-11T04:06:03.553Z,40.00
2018-08-11T04:07:03.536Z,44.00
2018-08-11T04:08:03.499Z,48.00
2018-08-11T04:09:03.469Z,52.00
2018-08-11T04:10:03.447Z,56.00
2018-08-11T04:11:03.413Z,64.00
2018-08-11T04:12:03.395Z,64.00
2018-08-11T04:13:03.362Z,68.00
2018-08-11T04:14:03.344Z,72.00
2018-08-11T04:15:03.317Z,80.00
2018-08-11T04:16:03.283Z,88.00
2018-08-11T04:17:03.263Z,96.00
2018-08-11T04:18:03.231Z,104.00
2018-08-11T04:19:03.214Z,104.00
2018-08-11T04:20:03.176Z,108.00
2018-08-11T04:21:03.162Z,120.00
2018-08-11T04:22:03.129Z,128.00
2018-08-11T04:23:03.099Z,144.00
2018-08-11T04:24:03.074Z,152.00
2018-08-11T04:25:03.048Z,168.00
2018-08-11T04:26:03.027Z,180.00
2018-08-11T04:27:03.000Z,196.00
2018-08-11T04:28:02.967Z,212.00
2018-08-11T04:29:02.951Z,228.00
2018-08-11T04:30:02.919Z,240.00
2018-08-11T04:31:02.889Z,248.00
2018-08-11T04:32:02.873Z,252.00
2018-08-11T04:33:02.835Z,260.00
2018-08-11T04:34:02.827Z,260.00
2018-08-11T04:35:02.785Z,268.00
2018-08-11T04:36:02.768Z,276.00
2018-08-11T04:37:02.736Z,280.00
2018-08-11T04:38:02.709Z,280.00
2018-08-11T04:39:02.683Z,280.00
2018-08-11T04:40:02.660Z,280.00
2018-08-11T04:41:02.635Z,264.00
2018-08-11T04:42:02.648Z,248.00
2018-08-11T04:43:02.578Z,252.00
2018-08-11T04:44:02.560Z,248.00
2018-08-11T04:45:02.527Z,252.00
2018-08-11T04:46:02.497Z,252.00
2018-08-11T04:47:02.479Z,268.00
2018-08-11T04:48:02.452Z,292.00
2018-08-11T04:49:02.421Z,260.00
2018-08-11T04:50:02.398Z,296.00
2018-08-11T04:51:02.373Z,356.00
2018-08-11T04:52:02.341Z,392.00
2018-08-11T04:53:02.317Z,400.00
2018-08-11T04:54:02.284Z,396.00
2018-08-11T04:55:02.268Z,392.00
2018-08-11T04:56:02.236Z,392.00
2018-08-11T04:57:02.211Z,444.00
2018-08-11T04:58:02.185Z,480.00
2018-08-11T04:59:02.164Z,512.00
2018-08-11T05:00:02.127Z,460.00
2018-08-11T05:01:02.102Z,488.00
2018-08-11T05:02:02.084Z,564.00
2018-08-11T05:03:02.049Z,600.00
2018-08-11T05:04:02.031Z,580.00
2018-08-11T05:05:02.001Z,552.00
2018-08-11T05:06:01.976Z,568.00
2018-08-11T05:07:01.946Z,564.00
2018-08-11T05:08:01.927Z,556.00
2018-08-11T05:09:01.904Z,576.00
2018-08-11T05:10:01.866Z,620.00
2018-08-11T05:11:01.842Z,652.00
2018-08-11T05:12:01.815Z,636.00
2018-08-11T05:13:01.789Z,620.00
2018-08-11T05:14:01.773Z,716.00
2018-08-11T05:15:01.734Z,664.00
2018-08-11T05:16:01.717Z,756.00
2018-08-11T05:17:01.680Z,756.00
2018-08-11T05:18:01.664Z,700.00
2018-08-11T05:19:01.640Z,708.00
2018-08-11T05:20:01.656Z,700.00
2018-08-11T05:21:01.588Z,832.00
2018-08-11T05:22:01.553Z,732.00
2018-08-11T05:23:01.535Z,764.00
2018-08-11T05:24:01.498Z,768.00
2018-08-11T05:25:01.484Z,820.00
2018-08-11T05:26:01.450Z,824.00
2018-08-11T05:27:01.425Z,828.00
2018-08-11T05:28:01.402Z,996.00
2018-08-11T05:29:01.371Z,992.00
2018-08-11T05:30:01.351Z,832.00
2018-08-11T05:31:01.324Z,988.00
2018-08-11T05:32:01.295Z,892.00
2018-08-11T05:33:01.275Z,1040.00
2018-08-11T05:34:01.241Z,696.00
2018-08-11T05:35:01.225Z,776.00
2018-08-11T05:36:01.191Z,728.00
2018-08-11T05:37:01.157Z,760.00
2018-08-11T05:38:01.143Z,800.00
2018-08-11T05:39:01.110Z,884.00
2018-08-11T05:40:01.095Z,1056.00
2018-08-11T05:41:01.057Z,960.00
2018-08-11T05:42:01.028Z,1180.00
2018-08-11T05:43:01.004Z,1244.00
2018-08-11T05:44:00.983Z,1008.00
2018-08-11T05:45:00.949Z,1016.00
2018-08-11T05:46:00.927Z,1252.00
2018-08-11T05:47:00.902Z,1132.00
2018-08-11T05:48:00.874Z,1136.00
2018-08-11T05:49:00.840Z,1168.00
2018-08-11T05:50:00.823Z,1208.00
2018-08-11T05:51:00.792Z,1156.00
2018-08-11T05:52:00.782Z,1108.00
2018-08-11T05:53:00.749Z,1028.00
2018-08-11T05:54:00.714Z,1380.00
2018-08-11T05:55:00.686Z,1204.00
2018-08-11T05:56:00.666Z,1240.00
2018-08-11T05:57:00.654Z,816.00
2018-08-11T05:58:00.605Z,672.00
2018-08-11T05:59:00.587Z,736.00
2018-08-11T06:00:00.558Z,732.00
2018-08-11T06:01:00.526Z,1028.00
2018-08-11T06:02:00.518Z,1028.00
2018-08-11T06:03:00.485Z,1276.00
2018-08-11T06:04:00.533Z,1116.00
2018-08-11T06:05:00.441Z,1384.00
2018-08-11T06:06:00.404Z,1140.00
2018-08-11T06:07:00.370Z,1068.00
2018-08-11T06:08:00.352Z,1264.00
2018-08-11T06:09:00.460Z,1252.00
2018-08-11T06:10:00.298Z,1104.00
2018-08-11T06:11:00.270Z,1160.00
2018-08-11T06:12:00.242Z,1180.00
2018-08-11T06:13:00.212Z,1404.00
2018-08-11T06:14:00.190Z,1408.00
2018-08-11T06:15:00.165Z,1448.00
2018-08-11T06:16:00.134Z,1360.00
2018-08-11T06:17:00.115Z,1448.00
2018-08-11T06:18:00.084Z,1648.00
2018-08-11T06:19:00.063Z,1136.00
2018-08-11T06:20:00.032Z,1436.00
2018-08-11T06:21:00.035Z,1636.00
2018-08-11T06:21:59.980Z,1480.00
2018-08-11T06:22:59.955Z,1540.00
2018-08-11T06:23:59.929Z,1308.00
2018-08-11T06:24:59.901Z,1724.00
2018-08-11T06:25:59.879Z,1024.00
2018-08-11T06:26:59.849Z,1168.00
2018-08-11T06:27:59.825Z,1176.00
2018-08-11T06:28:59.794Z,1220.00
2018-08-11T06:29:59.766Z,1040.00
2018-08-11T06:30:59.752Z,1008.00
2018-08-11T06:31:59.750Z,1020.00
2018-08-11T06:32:59.696Z,1076.00
2018-08-11T06:33:59.667Z,1188.00
2018-08-11T06:34:59.638Z,1536.00
2018-08-11T06:35:59.655Z,1904.00
2018-08-11T06:36:59.592Z,1488.00
2018-08-11T06:37:59.565Z,1372.00
2018-08-11T06:38:59.533Z,1472.00
2018-08-11T06:39:59.511Z,1120.00
2018-08-11T06:40:59.594Z,1328.00
2018-08-11T06:41:59.485Z,1672.00
2018-08-11T06:42:59.438Z,1096.00
2018-08-11T06:43:59.400Z,1232.00
2018-08-11T06:44:59.382Z,1476.00
2018-08-11T06:45:59.347Z,2208.00
2018-08-11T06:46:59.333Z,2348.00
2018-08-11T06:47:59.303Z,1624.00
2018-08-11T06:48:59.268Z,1784.00
2018-08-11T06:49:59.251Z,2604.00
2018-08-11T06:50:59.229Z,2588.00
2018-08-11T06:51:59.197Z,1152.00
2018-08-11T06:52:59.168Z,1440.00
2018-08-11T06:53:59.145Z,1512.00
2018-08-11T06:54:59.307Z,1900.00
2018-08-11T06:55:59.089Z,1624.00
2018-08-11T06:56:59.061Z,2008.00
2018-08-11T06:57:59.037Z,2152.00
2018-08-11T06:58:59.010Z,1744.00
2018-08-11T06:59:58.988Z,2688.00
2018-08-11T07:00:58.954Z,2060.00
2018-08-11T07:01:58.961Z,1776.00
2018-08-11T07:02:58.911Z,1776.00
2018-08-11T07:03:58.889Z,1608.00
2018-08-11T07:04:58.858Z,1044.00
2018-08-11T07:05:58.824Z,1484.00
2018-08-11T07:06:58.865Z,1144.00
2018-08-11T07:07:58.776Z,1120.00
2018-08-11T07:08:58.743Z,1336.00
2018-08-11T07:09:58.721Z,2304.00
2018-08-11T07:10:58.697Z,1436.00
2018-08-11T07:11:58.674Z,1216.00
2018-08-11T07:12:58.674Z,1492.00
2018-08-11T07:13:58.613Z,1172.00
2018-08-11T07:14:58.675Z,1288.00
2018-08-11T07:15:58.583Z,1208.00
2018-08-11T07:16:58.548Z,1284.00
2018-08-11T07:17:58.511Z,1460.00
2018-08-11T07:18:58.491Z,1244.00
2018-08-11T07:19:58.459Z,1160.00
2018-08-11T07:20:58.439Z,1072.00
2018-08-11T07:21:58.413Z,988.00
2018-08-11T07:22:58.384Z,944.00
2018-08-11T07:23:58.352Z,960.00
2018-08-11T07:24:58.330Z,928.00
2018-08-11T07:25:58.299Z,900.00
2018-08-11T07:26:58.273Z,868.00
2018-08-11T07:27:58.257Z,900.00
2018-08-11T07:28:58.227Z,1008.00
2018-08-11T07:29:58.199Z,1116.00
2018-08-11T07:30:58.175Z,1284.00
2018-08-11T07:31:58.146Z,1140.00
2018-08-11T07:32:58.129Z,1176.00
2018-08-11T07:33:58.094Z,1304.00
2018-08-11T07:34:58.069Z,1308.00
2018-08-11T07:35:58.084Z,1636.00
2018-08-11T07:36:58.017Z,1552.00
2018-08-11T07:37:57.993Z,1804.00
2018-08-11T07:38:57.964Z,1916.00
2018-08-11T07:39:57.935Z,1688.00
2018-08-11T07:40:57.910Z,1816.00
2018-08-11T07:41:57.890Z,1816.00
2018-08-11T07:42:57.860Z,2112.00
2018-08-11T07:43:57.836Z,2688.00
2018-08-11T07:44:57.810Z,1980.00
2018-08-11T07:45:57.776Z,1688.00
2018-08-11T07:46:57.755Z,1968.00
2018-08-11T07:47:57.735Z,1608.00
2018-08-11T07:48:57.707Z,1304.00
2018-08-11T07:49:57.673Z,1304.00
2018-08-11T07:50:57.653Z,1292.00
2018-08-11T07:51:57.628Z,1472.00
2018-08-11T07:52:57.611Z,1708.00
2018-08-11T07:53:57.577Z,1536.00
2018-08-11T07:54:57.553Z,1580.00
2018-08-11T07:55:57.585Z,1948.00
2018-08-11T07:56:57.497Z,1788.00
2018-08-11T07:57:57.471Z,1416.00
2018-08-11T07:58:57.448Z,1700.00
2018-08-11T07:59:57.416Z,1560.00
2018-08-11T08:00:57.389Z,1560.00
2018-08-11T08:01:57.365Z,1632.00
2018-08-11T08:02:57.342Z,1804.00
2018-08-11T08:03:57.319Z,1600.00
2018-08-11T08:04:57.289Z,1904.00
2018-08-11T08:05:57.260Z,1668.00
2018-08-11T08:06:57.237Z,1852.00
2018-08-11T08:07:57.255Z,2592.00
2018-08-11T08:08:57.185Z,2808.00
2018-08-11T08:09:57.159Z,2920.00
2018-08-11T08:10:57.129Z,3128.00
2018-08-11T08:11:57.112Z,2588.00
2018-08-11T08:12:57.076Z,2700.00
2018-08-11T08:13:57.056Z,2992.00
2018-08-11T08:14:57.032Z,2676.00
2018-08-11T08:15:57.038Z,2664.00
2018-08-11T08:16:56.979Z,2456.00
2018-08-11T08:17:56.949Z,2484.00
2018-08-11T08:18:56.924Z,2788.00
2018-08-11T08:19:56.901Z,3000.00
2018-08-11T08:20:56.874Z,2004.00
2018-08-11T08:21:56.848Z,1588.00
2018-08-11T08:22:56.823Z,1624.00
2018-08-11T08:23:56.794Z,1920.00
2018-08-11T08:24:56.772Z,2072.00
2018-08-11T08:25:56.785Z,1968.00
2018-08-11T08:26:56.784Z,1880.00
2018-08-11T08:27:56.695Z,1836.00
2018-08-11T08:28:56.663Z,1536.00
2018-08-11T08:29:56.639Z,1540.00
2018-08-11T08:30:56.617Z,1396.00
2018-08-11T08:31:56.595Z,1488.00
2018-08-11T08:32:56.564Z,1592.00
2018-08-11T08:33:56.600Z,1528.00
2018-08-11T08:34:56.511Z,1672.00
2018-08-11T08:35:56.492Z,1768.00
2018-08-11T08:36:56.459Z,1888.00
2018-08-11T08:37:56.441Z,2124.00
2018-08-11T08:38:56.414Z,2500.00
2018-08-11T08:39:56.380Z,2388.00
2018-08-11T08:40:56.367Z,1664.00
2018-08-11T08:41:56.394Z,1272.00
2018-08-11T08:42:56.355Z,1220.00
2018-08-11T08:43:56.284Z,1288.00
2018-08-11T08:44:56.256Z,1532.00
2018-08-11T08:45:56.228Z,1876.00
2018-08-11T08:46:56.207Z,1964.00
2018-08-11T08:47:56.172Z,1924.00
2018-08-11T08:48:56.162Z,2236.00
2018-08-11T08:49:56.128Z,2456.00
2018-08-11T08:50:56.107Z,2404.00
2018-08-11T08:51:56.071Z,2140.00
2018-08-11T08:52:56.055Z,2136.00
2018-08-11T08:53:56.017Z,2036.00
2018-08-11T08:54:55.999Z,1924.00
2018-08-11T08:55:55.979Z,1960.00
2018-08-11T08:56:55.944Z,1920.00
2018-08-11T08:57:55.920Z,2052.00
2018-08-11T08:58:55.893Z,2360.00
2018-08-11T08:59:55.860Z,2792.00
2018-08-11T09:00:55.844Z,3380.00
2018-08-11T09:01:55.809Z,3200.00
2018-08-11T09:02:55.786Z,2976.00
2018-08-11T09:03:55.766Z,2764.00
2018-08-11T09:04:55.810Z,2884.00
2018-08-11T09:05:55.716Z,2644.00
2018-08-11T09:06:55.686Z,2192.00
2018-08-11T09:07:55.659Z,1976.00
2018-08-11T09:08:55.633Z,2256.00
2018-08-11T09:09:55.619Z,2948.00
2018-08-11T09:10:55.579Z,2876.00
2018-08-11T09:11:55.600Z,3120.00
2018-08-11T09:12:55.529Z,2896.00
2018-08-11T09:13:55.506Z,2192.00
2018-08-11T09:14:55.480Z,2056.00
2018-08-11T09:15:55.453Z,2188.00
2018-08-11T09:16:55.429Z,2272.00
2018-08-11T09:17:55.402Z,2512.00
2018-08-11T09:18:55.376Z,2580.00
2018-08-11T09:19:55.353Z,2504.00
2018-08-11T09:20:55.329Z,2392.00
2018-08-11T09:21:55.301Z,2916.00
2018-08-11T09:22:55.271Z,2792.00
2018-08-11T09:23:55.249Z,2752.00
2018-08-11T09:24:55.226Z,2368.00
2018-08-11T09:25:55.191Z,2744.00
2018-08-11T09:26:55.172Z,3372.00
2018-08-11T09:27:55.142Z,2444.00
2018-08-11T09:28:55.114Z,2132.00
2018-08-11T09:29:55.101Z,1844.00
2018-08-11T09:30:55.068Z,1860.00
2018-08-11T09:31:55.045Z,1672.00
2018-08-11T09:32:55.023Z,1664.00
2018-08-11T09:33:54.989Z,1448.00
2018-08-11T09:34:54.972Z,1300.00
2018-08-11T09:35:54.941Z,1212.00
2018-08-11T09:36:54.912Z,1276.00
2018-08-11T09:37:54.894Z,1268.00
2018-08-11T09:38:54.871Z,1272.00
2018-08-11T09:39:54.838Z,1372.00
2018-08-11T09:40:54.807Z,1536.00
2018-08-11T09:41:54.793Z,1732.00
2018-08-11T09:42:54.790Z,1936.00
2018-08-11T09:43:54.738Z,2300.00
2018-08-11T09:44:54.717Z,2580.00
2018-08-11T09:45:54.707Z,2264.00
2018-08-11T09:46:54.663Z,1980.00
2018-08-11T09:47:54.640Z,1876.00
2018-08-11T09:48:54.609Z,1724.00
2018-08-11T09:49:54.581Z,1808.00
2018-08-11T09:50:54.568Z,1912.00
2018-08-11T09:51:54.529Z,2008.00
2018-08-11T09:52:54.520Z,2220.00
2018-08-11T09:53:54.485Z,2368.00
2018-08-11T09:54:54.459Z,2424.00
2018-08-11T09:55:54.433Z,2600.00
2018-08-11T09:56:54.404Z,2832.00
2018-08-11T09:57:54.382Z,2852.00
2018-08-11T09:58:54.349Z,3312.00
2018-08-11T09:59:54.334Z,3276.00
2018-08-11T10:00:54.298Z,3460.00
2018-08-11T10:01:54.279Z,3508.00
2018-08-11T10:02:54.252Z,3432.00
2018-08-11T10:03:54.221Z,3512.00
2018-08-11T10:04:54.207Z,3176.00
2018-08-11T10:05:54.170Z,2676.00
2018-08-11T10:06:54.145Z,2200.00
2018-08-11T10:07:54.131Z,2092.00
2018-08-11T10:08:54.131Z,1768.00
2018-08-11T10:09:54.080Z,1744.00
2018-08-11T10:10:54.053Z,1924.00
2018-08-11T10:11:54.039Z,2256.00
2018-08-11T10:12:53.995Z,2500.00
2018-08-11T10:13:53.974Z,2504.00
2018-08-11T10:14:53.950Z,2632.00
2018-08-11T10:15:53.921Z,2776.00
2018-08-11T10:16:53.895Z,3312.00
2018-08-11T10:17:53.871Z,3532.00
2018-08-11T10:18:53.845Z,3332.00
2018-08-11T10:19:53.818Z,3636.00
2018-08-11T10:20:53.794Z,3396.00
2018-08-11T10:21:53.766Z,3004.00
2018-08-11T10:22:53.741Z,2876.00
2018-08-11T10:23:53.719Z,3000.00
2018-08-11T10:24:53.688Z,2628.00
2018-08-11T10:25:53.673Z,2304.00
2018-08-11T10:26:53.640Z,2076.00
2018-08-11T10:27:53.618Z,2148.00
2018-08-11T10:28:53.598Z,1968.00
2018-08-11T10:29:53.564Z,1856.00
2018-08-11T10:30:53.539Z,1904.00
2018-08-11T10:31:53.529Z,1860.00
2018-08-11T10:32:53.493Z,1976.00
2018-08-11T10:33:53.466Z,2136.00
2018-08-11T10:34:53.439Z,2132.00
2018-08-11T10:35:53.416Z,2276.00
2018-08-11T10:36:53.394Z,2660.00
2018-08-11T10:37:53.372Z,2952.00
2018-08-11T10:38:53.338Z,3188.00
2018-08-11T10:39:53.335Z,3244.00
2018-08-11T10:40:53.282Z,3120.00
2018-08-11T10:41:53.267Z,3052.00
2018-08-11T10:42:53.237Z,3260.00
2018-08-11T10:43:53.209Z,3196.00
2018-08-11T10:44:53.187Z,2740.00
2018-08-11T10:45:53.159Z,2752.00
2018-08-11T10:46:53.139Z,2756.00
2018-08-11T10:47:53.107Z,2768.00
2018-08-11T10:48:53.092Z,2620.00
2018-08-11T10:49:53.058Z,2624.00
2018-08-11T10:50:53.032Z,2680.00
2018-08-11T10:51:53.004Z,2840.00
2018-08-11T10:52:52.988Z,2908.00
2018-08-11T10:53:52.956Z,2708.00
2018-08-11T10:54:52.929Z,2232.00
2018-08-11T10:55:52.958Z,2020.00
2018-08-11T10:56:52.887Z,2032.00
2018-08-11T10:57:52.863Z,1980.00
2018-08-11T10:58:52.830Z,1764.00
2018-08-11T10:59:52.812Z,1568.00
2018-08-11T11:00:52.778Z,1528.00
2018-08-11T11:01:52.761Z,1596.00
2018-08-11T11:02:52.737Z,1544.00
2018-08-11T11:03:52.704Z,1544.00
2018-08-11T11:04:52.685Z,1616.00
2018-08-11T11:05:52.652Z,1720.00
2018-08-11T11:06:52.628Z,1908.00
2018-08-11T11:07:52.603Z,2160.00
2018-08-11T11:08:52.582Z,2420.00
2018-08-11T11:09:52.552Z,2892.00
2018-08-11T11:10:52.528Z,3344.00
2018-08-11T11:11:52.504Z,3428.00
2018-08-11T11:12:52.484Z,3216.00
2018-08-11T11:13:52.455Z,3048.00
2018-08-11T11:14:52.429Z,3112.00
2018-08-11T11:15:52.408Z,3472.00
2018-08-11T11:16:52.376Z,4036.00
2018-08-11T11:17:52.355Z,4728.00
2018-08-11T11:18:52.329Z,4824.00
2018-08-11T11:19:52.303Z,4504.00
2018-08-11T11:20:52.320Z,4324.00
2018-08-11T11:21:52.252Z,4504.00
2018-08-11T11:22:52.227Z,4636.00
2018-08-11T11:23:52.204Z,4656.00
2018-08-11T11:24:52.181Z,4468.00
2018-08-11T11:25:52.154Z,4116.00
2018-08-11T11:26:52.135Z,3820.00
2018-08-11T11:27:52.106Z,3756.00
2018-08-11T11:28:52.075Z,3772.00
2018-08-11T11:29:52.057Z,3932.00
2018-08-11T11:30:52.024Z,4288.00
2018-08-11T11:31:52.008Z,3928.00
2018-08-11T11:32:51.977Z,3552.00
2018-08-11T11:33:51.950Z,2848.00
2018-08-11T11:34:51.931Z,2400.00
2018-08-11T11:35:51.898Z,2496.00
2018-08-11T11:36:51.877Z,2568.00
2018-08-11T11:37:51.853Z,2864.00
2018-08-11T11:38:51.855Z,3064.00
2018-08-11T11:39:51.807Z,3064.00
2018-08-11T11:40:51.783Z,2860.00
2018-08-11T11:41:51.758Z,2616.00
2018-08-11T11:42:51.734Z,2720.00
2018-08-11T11:43:51.699Z,2740.00
2018-08-11T11:44:51.679Z,2932.00
2018-08-11T11:45:51.658Z,3380.00
2018-08-11T11:46:51.632Z,3768.00
2018-08-11T11:47:51.600Z,4308.00
2018-08-11T11:48:51.582Z,4824.00
2018-08-11T11:49:51.550Z,4612.00
2018-08-11T11:50:51.529Z,4640.00
2018-08-11T11:51:51.676Z,4452.00
2018-08-11T11:52:51.476Z,4700.00
2018-08-11T11:53:51.459Z,4748.00
2018-08-11T11:54:51.433Z,4524.00
2018-08-11T11:55:51.402Z,3892.00
2018-08-11T11:56:51.384Z,3120.00
2018-08-11T11:57:51.369Z,2628.00
2018-08-11T11:58:51.328Z,2240.00
2018-08-11T11:59:51.375Z,2392.00
2018-08-11T12:00:51.348Z,2456.00
2018-08-11T12:01:51.261Z,2652.00
2018-08-11T12:02:51.229Z,2596.00
2018-08-11T12:03:51.212Z,2728.00
2018-08-11T12:04:51.183Z,3072.00
2018-08-11T12:05:51.188Z,3068.00
2018-08-11T12:06:51.140Z,2956.00
2018-08-11T12:07:51.109Z,2780.00
2018-08-11T12:08:51.080Z,2572.00
2018-08-11T12:09:51.059Z,2284.00
2018-08-11T12:10:51.029Z,2120.00
2018-08-11T12:11:51.027Z,2240.00
2018-08-11T12:12:50.987Z,2436.00
2018-08-11T12:13:50.958Z,2628.00
2018-08-11T12:14:50.932Z,2828.00
2018-08-11T12:15:50.918Z,3144.00
2018-08-11T12:16:50.888Z,3304.00
2018-08-11T12:17:50.865Z,2996.00
2018-08-11T12:18:50.842Z,2704.00
2018-08-11T12:19:50.807Z,2512.00
2018-08-11T12:20:50.790Z,2520.00
2018-08-11T12:21:50.761Z,2348.00
2018-08-11T12:22:50.736Z,2316.00
2018-08-11T12:23:50.716Z,2196.00
2018-08-11T12:24:50.685Z,2088.00
2018-08-11T12:25:50.667Z,2144.00
2018-08-11T12:26:50.636Z,2016.00
2018-08-11T12:27:50.676Z,2052.00
2018-08-11T12:28:50.591Z,2176.00
2018-08-11T12:29:50.568Z,2156.00
2018-08-11T12:30:50.536Z,2240.00